NBL224 PAJN-CYVR
Flight info
| Callsign | NBL224 |
|---|---|
| Flight time | 1h 48m |
| Altitude | 35000 |
| Route | PAJN/08 N0458F350 GLAZZ1 LVD Q902 YZT DCT BOOTH CANUC6 CYVR/08L |
| Aircraft | B738/M-SDE2E3FGHIRWXY/LB1 |
Departure
| Time | 2026-04-17 20:20 |
|---|---|
| Airport | Juneau International Airport (PAJN) |
Arrival
| Time | 2026-04-17 22:08 |
|---|---|
| Airport | Vancouver International Airport (CYVR) |
| Time | Latitude | Longitude | Altitude | Speed | Heading |
|---|---|---|---|---|---|
| 2026-04-17 20:02 | 58.35845 | -134.58443 | 34 ft | 0 kts | 46° |
| 2026-04-17 20:15 | 58.35846 | -134.58433 | 34 ft | 4 kts | 78° |
| 2026-04-17 20:15 | 58.35795 | -134.58429 | 31 ft | 14 kts | 233° |
| 2026-04-17 20:16 | 58.35783 | -134.58609 | 34 ft | 14 kts | 224° |
| 2026-04-17 20:16 | 58.35774 | -134.58837 | 33 ft | 23 kts | 285° |
| 2026-04-17 20:16 | 58.35818 | -134.59100 | 34 ft | 4 kts | 285° |
| 2026-04-17 20:16 | 58.35824 | -134.59140 | 34 ft | 0 kts | 285° |
| 2026-04-17 20:18 | 58.35840 | -134.59265 | 32 ft | 19 kts | 282° |
| 2026-04-17 20:18 | 58.35863 | -134.59461 | 34 ft | 16 kts | 282° |
| 2026-04-17 20:18 | 58.35873 | -134.59617 | 34 ft | 10 kts | 257° |
| 2026-04-17 20:18 | 58.35821 | -134.59683 | 32 ft | 9 kts | 193° |
| 2026-04-17 20:19 | 58.35784 | -134.59658 | 34 ft | 7 kts | 121° |
| 2026-04-17 20:19 | 58.35728 | -134.59252 | 36 ft | 69 kts | 104° |
| 2026-04-17 20:19 | 58.35542 | -134.57944 | 33 ft | 131 kts | 105° |
| 2026-04-17 20:19 | 58.35266 | -134.55997 | 480 ft | 161 kts | 105° |
| 2026-04-17 20:20 | 58.35047 | -134.53857 | 1400 ft | 170 kts | 110° |
| 2026-04-17 20:20 | 58.34453 | -134.51891 | 2119 ft | 183 kts | 137° |
| 2026-04-17 20:20 | 58.33441 | -134.50152 | 2425 ft | 209 kts | 139° |
| 2026-04-17 20:20 | 58.32344 | -134.48135 | 2840 ft | 225 kts | 137° |
| 2026-04-17 20:21 | 58.31175 | -134.45948 | 3174 ft | 248 kts | 136° |
| 2026-04-17 20:21 | 58.29949 | -134.43603 | 4099 ft | 249 kts | 135° |
| 2026-04-17 20:21 | 58.28787 | -134.41176 | 5117 ft | 248 kts | 134° |
| 2026-04-17 20:21 | 58.27609 | -134.38685 | 5865 ft | 257 kts | 135° |
| 2026-04-17 20:22 | 58.26401 | -134.36143 | 6717 ft | 261 kts | 135° |
| 2026-04-17 20:22 | 58.25166 | -134.33571 | 7496 ft | 266 kts | 136° |
| 2026-04-17 20:22 | 58.23888 | -134.30949 | 8179 ft | 274 kts | 138° |
| 2026-04-17 20:22 | 58.22549 | -134.28334 | 8967 ft | 279 kts | 139° |
| 2026-04-17 20:23 | 58.21176 | -134.25674 | 9706 ft | 286 kts | 139° |
| 2026-04-17 20:23 | 58.19766 | -134.22938 | 10344 ft | 296 kts | 139° |
| 2026-04-17 20:23 | 58.18141 | -134.20347 | 10529 ft | 315 kts | 152° |
| 2026-04-17 20:23 | 58.16212 | -134.18204 | 10728 ft | 336 kts | 154° |
| 2026-04-17 20:24 | 58.14151 | -134.15815 | 11033 ft | 355 kts | 152° |
| 2026-04-17 20:24 | 58.12035 | -134.13323 | 11640 ft | 361 kts | 153° |
| 2026-04-17 20:24 | 58.09880 | -134.10829 | 12342 ft | 365 kts | 153° |
| 2026-04-17 20:24 | 58.07703 | -134.08309 | 13009 ft | 370 kts | 152° |
| 2026-04-17 20:25 | 58.05503 | -134.05758 | 13769 ft | 372 kts | 152° |
| 2026-04-17 20:25 | 58.03283 | -134.03185 | 14415 ft | 376 kts | 152° |
| 2026-04-17 20:25 | 58.01044 | -134.00590 | 15045 ft | 380 kts | 152° |
| 2026-04-17 20:25 | 57.98784 | -133.97970 | 15698 ft | 382 kts | 152° |
| 2026-04-17 20:26 | 57.96511 | -133.95340 | 16339 ft | 385 kts | 152° |
| 2026-04-17 20:26 | 57.94216 | -133.92692 | 16975 ft | 388 kts | 153° |
| 2026-04-17 20:26 | 57.91804 | -133.90434 | 17561 ft | 387 kts | 164° |
| 2026-04-17 20:26 | 57.89243 | -133.88861 | 18192 ft | 388 kts | 167° |
| 2026-04-17 20:27 | 57.86642 | -133.87405 | 18757 ft | 391 kts | 167° |
| 2026-04-17 20:27 | 57.84017 | -133.85961 | 19268 ft | 395 kts | 167° |
| 2026-04-17 20:27 | 57.81372 | -133.84489 | 19755 ft | 398 kts | 167° |
| 2026-04-17 20:27 | 57.78706 | -133.82980 | 20246 ft | 402 kts | 167° |
| 2026-04-17 20:28 | 57.76021 | -133.81439 | 20743 ft | 405 kts | 167° |
| 2026-04-17 20:28 | 57.73317 | -133.79871 | 21228 ft | 408 kts | 167° |
| 2026-04-17 20:28 | 57.70754 | -133.78378 | 21687 ft | 411 kts | 167° |
| 2026-04-17 20:28 | 57.68013 | -133.76778 | 22142 ft | 415 kts | 167° |
| 2026-04-17 20:29 | 57.65246 | -133.75162 | 22604 ft | 418 kts | 167° |
| 2026-04-17 20:29 | 57.62459 | -133.73536 | 23055 ft | 421 kts | 167° |
| 2026-04-17 20:29 | 57.59690 | -133.71923 | 23499 ft | 424 kts | 167° |
| 2026-04-17 20:29 | 57.56862 | -133.70278 | 23915 ft | 427 kts | 167° |
| 2026-04-17 20:30 | 57.51144 | -133.66962 | 24590 ft | 433 kts | 167° |
| 2026-04-17 20:30 | 57.48258 | -133.65292 | 24934 ft | 436 kts | 167° |
| 2026-04-17 20:30 | 57.45367 | -133.63623 | 25425 ft | 434 kts | 167° |
| 2026-04-17 20:31 | 57.42483 | -133.61958 | 25818 ft | 436 kts | 167° |
| 2026-04-17 20:31 | 57.39570 | -133.60280 | 26113 ft | 439 kts | 167° |
| 2026-04-17 20:31 | 57.36641 | -133.58599 | 26407 ft | 442 kts | 167° |
| 2026-04-17 20:31 | 57.33696 | -133.56910 | 26746 ft | 444 kts | 167° |
| 2026-04-17 20:32 | 57.30740 | -133.55218 | 27072 ft | 446 kts | 167° |
| 2026-04-17 20:32 | 57.27764 | -133.53516 | 27381 ft | 448 kts | 167° |
| 2026-04-17 20:32 | 57.24778 | -133.51813 | 27668 ft | 451 kts | 167° |
| 2026-04-17 20:32 | 57.21767 | -133.50099 | 27924 ft | 454 kts | 167° |
| 2026-04-17 20:33 | 57.18735 | -133.48371 | 28170 ft | 457 kts | 167° |
| 2026-04-17 20:33 | 57.15693 | -133.46637 | 28469 ft | 459 kts | 167° |
| 2026-04-17 20:33 | 57.12630 | -133.44902 | 28783 ft | 460 kts | 167° |
| 2026-04-17 20:33 | 57.09567 | -133.43171 | 29090 ft | 461 kts | 167° |
| 2026-04-17 20:34 | 57.06497 | -133.41438 | 29490 ft | 460 kts | 167° |
| 2026-04-17 20:34 | 57.03444 | -133.39716 | 29926 ft | 458 kts | 167° |
| 2026-04-17 20:34 | 57.00434 | -133.38021 | 30336 ft | 457 kts | 167° |
| 2026-04-17 20:34 | 56.97386 | -133.36308 | 30643 ft | 457 kts | 167° |
| 2026-04-17 20:35 | 56.94339 | -133.34599 | 30928 ft | 457 kts | 167° |
| 2026-04-17 20:35 | 56.91302 | -133.32899 | 31343 ft | 454 kts | 167° |
| 2026-04-17 20:35 | 56.88286 | -133.31210 | 31767 ft | 451 kts | 168° |
| 2026-04-17 20:35 | 56.85287 | -133.29535 | 32061 ft | 452 kts | 168° |
| 2026-04-17 20:36 | 56.82270 | -133.27856 | 32307 ft | 453 kts | 168° |
| 2026-04-17 20:36 | 56.79256 | -133.26181 | 32613 ft | 452 kts | 168° |
| 2026-04-17 20:36 | 56.76248 | -133.24510 | 32982 ft | 451 kts | 168° |
| 2026-04-17 20:36 | 56.73247 | -133.22846 | 33306 ft | 450 kts | 168° |
| 2026-04-17 20:37 | 56.70252 | -133.21189 | 33566 ft | 450 kts | 168° |
| 2026-04-17 20:37 | 56.67254 | -133.19533 | 33847 ft | 450 kts | 168° |
| 2026-04-17 20:37 | 56.64298 | -133.17902 | 34077 ft | 450 kts | 168° |
| 2026-04-17 20:37 | 56.61299 | -133.16249 | 34308 ft | 450 kts | 168° |
| 2026-04-17 20:38 | 56.58298 | -133.14605 | 34477 ft | 451 kts | 168° |
| 2026-04-17 20:38 | 56.55292 | -133.12956 | 34676 ft | 451 kts | 168° |
| 2026-04-17 20:38 | 56.52291 | -133.11305 | 34892 ft | 451 kts | 168° |
| 2026-04-17 20:38 | 56.49282 | -133.09656 | 35074 ft | 452 kts | 168° |
| 2026-04-17 20:39 | 56.46291 | -133.07876 | 35229 ft | 457 kts | 161° |
| 2026-04-17 20:39 | 56.43464 | -133.05132 | 35272 ft | 464 kts | 153° |
| 2026-04-17 20:39 | 56.37998 | -132.98865 | 35244 ft | 464 kts | 152° |
| 2026-04-17 20:40 | 56.32601 | -132.92613 | 35250 ft | 458 kts | 153° |
| 2026-04-17 20:40 | 56.27209 | -132.86570 | 35268 ft | 454 kts | 153° |
| 2026-04-17 20:41 | 56.21850 | -132.80671 | 35259 ft | 453 kts | 154° |
| 2026-04-17 20:41 | 56.16463 | -132.74775 | 35266 ft | 453 kts | 154° |
| 2026-04-17 20:42 | 56.11976 | -132.69876 | 35264 ft | 454 kts | 153° |
| 2026-04-17 20:42 | 56.06561 | -132.63976 | 35267 ft | 457 kts | 153° |
| 2026-04-17 20:43 | 56.01099 | -132.58042 | 35272 ft | 460 kts | 153° |
| 2026-04-17 20:43 | 55.95614 | -132.52102 | 35268 ft | 462 kts | 153° |
| 2026-04-17 20:44 | 55.90128 | -132.46181 | 35273 ft | 464 kts | 153° |
| 2026-04-17 20:44 | 55.84590 | -132.40222 | 35276 ft | 466 kts | 153° |
| 2026-04-17 20:45 | 55.79019 | -132.34250 | 35275 ft | 467 kts | 153° |
| 2026-04-17 20:45 | 55.73441 | -132.28289 | 35276 ft | 467 kts | 153° |
| 2026-04-17 20:46 | 55.67880 | -132.22364 | 35260 ft | 465 kts | 153° |
| 2026-04-17 20:46 | 55.62383 | -132.16528 | 35263 ft | 462 kts | 153° |
| 2026-04-17 20:47 | 55.56882 | -132.10697 | 35275 ft | 459 kts | 153° |
| 2026-04-17 20:47 | 55.51406 | -132.04924 | 35278 ft | 458 kts | 153° |
| 2026-04-17 20:48 | 55.45948 | -131.99182 | 35289 ft | 457 kts | 153° |
| 2026-04-17 20:48 | 55.40484 | -131.93457 | 35294 ft | 457 kts | 154° |
| 2026-04-17 20:49 | 55.35005 | -131.87748 | 35289 ft | 458 kts | 154° |
| 2026-04-17 20:49 | 55.29512 | -131.82043 | 35304 ft | 460 kts | 153° |
| 2026-04-17 20:50 | 55.23985 | -131.76318 | 35299 ft | 463 kts | 154° |
| 2026-04-17 20:50 | 55.18453 | -131.70602 | 35292 ft | 466 kts | 154° |
| 2026-04-17 20:51 | 55.12845 | -131.64826 | 35265 ft | 468 kts | 154° |
| 2026-04-17 20:51 | 55.07229 | -131.59060 | 35268 ft | 467 kts | 154° |
| 2026-04-17 20:52 | 55.01651 | -131.53200 | 35258 ft | 468 kts | 152° |
| 2026-04-17 20:52 | 54.96137 | -131.47201 | 35266 ft | 467 kts | 152° |
| 2026-04-17 20:53 | 54.90658 | -131.41269 | 35247 ft | 466 kts | 152° |
| 2026-04-17 20:53 | 54.85137 | -131.35346 | 35258 ft | 467 kts | 152° |
| 2026-04-17 20:54 | 54.79606 | -131.29439 | 35269 ft | 466 kts | 152° |
| 2026-04-17 20:54 | 54.74089 | -131.23562 | 35269 ft | 465 kts | 152° |
| 2026-04-17 20:55 | 54.68610 | -131.17614 | 35277 ft | 467 kts | 148° |
| 2026-04-17 20:55 | 54.63503 | -131.10635 | 35282 ft | 468 kts | 144° |
| 2026-04-17 20:56 | 54.58211 | -131.04248 | 35287 ft | 462 kts | 153° |
| 2026-04-17 20:56 | 54.52672 | -130.98639 | 35282 ft | 461 kts | 154° |
| 2026-04-17 20:57 | 54.47119 | -130.93065 | 35290 ft | 462 kts | 153° |
| 2026-04-17 20:57 | 54.41592 | -130.87420 | 35287 ft | 462 kts | 153° |
| 2026-04-17 20:58 | 54.36124 | -130.81792 | 35286 ft | 461 kts | 153° |
| 2026-04-17 20:58 | 54.30622 | -130.76134 | 35290 ft | 461 kts | 153° |
| 2026-04-17 20:59 | 54.25121 | -130.70498 | 35284 ft | 461 kts | 153° |
| 2026-04-17 20:59 | 54.19622 | -130.64884 | 35274 ft | 461 kts | 153° |
| 2026-04-17 21:00 | 54.14111 | -130.59277 | 35286 ft | 461 kts | 153° |
| 2026-04-17 21:00 | 54.08592 | -130.53679 | 35293 ft | 462 kts | 153° |
| 2026-04-17 21:01 | 54.03059 | -130.48085 | 35304 ft | 463 kts | 153° |
| 2026-04-17 21:01 | 53.97510 | -130.42492 | 35280 ft | 464 kts | 153° |
| 2026-04-17 21:02 | 53.91947 | -130.36905 | 35285 ft | 464 kts | 153° |
| 2026-04-17 21:02 | 53.86381 | -130.31329 | 35276 ft | 465 kts | 153° |
| 2026-04-17 21:03 | 53.80840 | -130.25794 | 35295 ft | 465 kts | 153° |
| 2026-04-17 21:03 | 53.75252 | -130.20230 | 35293 ft | 466 kts | 153° |
| 2026-04-17 21:04 | 53.69645 | -130.14672 | 35274 ft | 466 kts | 153° |
| 2026-04-17 21:04 | 53.64057 | -130.09140 | 35286 ft | 465 kts | 153° |
| 2026-04-17 21:05 | 53.58482 | -130.03638 | 35291 ft | 464 kts | 153° |
| 2026-04-17 21:05 | 53.52952 | -129.98202 | 35283 ft | 463 kts | 153° |
| 2026-04-17 21:06 | 53.47389 | -129.92749 | 35278 ft | 462 kts | 153° |
| 2026-04-17 21:06 | 53.41826 | -129.87313 | 35285 ft | 462 kts | 154° |
| 2026-04-17 21:07 | 53.36273 | -129.81904 | 35283 ft | 461 kts | 154° |
| 2026-04-17 21:07 | 53.30726 | -129.76516 | 35284 ft | 461 kts | 154° |
| 2026-04-17 21:08 | 53.25170 | -129.71136 | 35281 ft | 461 kts | 154° |
| 2026-04-17 21:08 | 53.19614 | -129.65772 | 35288 ft | 462 kts | 154° |
| 2026-04-17 21:09 | 53.14071 | -129.60437 | 35290 ft | 463 kts | 154° |
| 2026-04-17 21:09 | 53.08489 | -129.55077 | 35291 ft | 464 kts | 154° |
| 2026-04-17 21:10 | 53.02887 | -129.49715 | 35287 ft | 465 kts | 154° |
| 2026-04-17 21:10 | 52.97284 | -129.44334 | 35296 ft | 466 kts | 154° |
| 2026-04-17 21:11 | 52.91675 | -129.38941 | 35296 ft | 466 kts | 154° |
| 2026-04-17 21:11 | 52.86060 | -129.33563 | 35279 ft | 466 kts | 154° |
| 2026-04-17 21:12 | 52.80444 | -129.28207 | 35287 ft | 465 kts | 153° |
| 2026-04-17 21:12 | 52.74836 | -129.22861 | 35288 ft | 464 kts | 153° |
| 2026-04-17 21:13 | 52.69280 | -129.17586 | 35291 ft | 463 kts | 154° |
| 2026-04-17 21:13 | 52.63698 | -129.12305 | 35297 ft | 461 kts | 154° |
| 2026-04-17 21:14 | 52.58136 | -129.07058 | 35287 ft | 460 kts | 154° |
| 2026-04-17 21:14 | 52.52589 | -129.01841 | 35304 ft | 459 kts | 154° |
| 2026-04-17 21:15 | 52.47040 | -128.96637 | 35299 ft | 459 kts | 154° |
| 2026-04-17 21:15 | 52.41491 | -128.91448 | 35301 ft | 459 kts | 154° |
| 2026-04-17 21:16 | 52.35939 | -128.86271 | 35294 ft | 459 kts | 154° |
| 2026-04-17 21:16 | 52.30373 | -128.81093 | 35308 ft | 460 kts | 154° |
| 2026-04-17 21:17 | 52.24886 | -128.75801 | 35294 ft | 464 kts | 147° |
| 2026-04-17 21:17 | 52.20243 | -128.68422 | 35315 ft | 470 kts | 132° |
| 2026-04-17 21:18 | 52.16055 | -128.60212 | 35305 ft | 472 kts | 132° |
| 2026-04-17 21:18 | 52.11834 | -128.52022 | 35307 ft | 472 kts | 133° |
| 2026-04-17 21:19 | 52.07583 | -128.43869 | 35308 ft | 473 kts | 133° |
| 2026-04-17 21:19 | 52.03313 | -128.35734 | 35312 ft | 473 kts | 133° |
| 2026-04-17 21:20 | 51.99034 | -128.27610 | 35298 ft | 473 kts | 133° |
| 2026-04-17 21:20 | 51.94753 | -128.19504 | 35315 ft | 473 kts | 133° |
| 2026-04-17 21:21 | 51.90471 | -128.11421 | 35317 ft | 473 kts | 133° |
| 2026-04-17 21:21 | 51.86184 | -128.03355 | 35306 ft | 472 kts | 133° |
| 2026-04-17 21:22 | 51.81894 | -127.95309 | 35302 ft | 472 kts | 133° |
| 2026-04-17 21:22 | 51.77606 | -127.87291 | 35314 ft | 471 kts | 133° |
| 2026-04-17 21:23 | 51.73313 | -127.79291 | 35309 ft | 471 kts | 133° |
| 2026-04-17 21:23 | 51.69036 | -127.71346 | 35312 ft | 471 kts | 133° |
| 2026-04-17 21:24 | 51.64735 | -127.63381 | 35309 ft | 471 kts | 134° |
| 2026-04-17 21:24 | 51.60432 | -127.55436 | 35309 ft | 470 kts | 133° |
| 2026-04-17 21:25 | 51.56126 | -127.47512 | 35333 ft | 470 kts | 133° |
| 2026-04-17 21:25 | 51.51813 | -127.39599 | 35323 ft | 470 kts | 134° |
| 2026-04-17 21:26 | 51.47492 | -127.31696 | 35318 ft | 470 kts | 134° |
| 2026-04-17 21:26 | 51.43165 | -127.23808 | 35300 ft | 471 kts | 134° |
| 2026-04-17 21:27 | 51.39559 | -127.17253 | 35305 ft | 472 kts | 134° |
| 2026-04-17 21:27 | 51.34496 | -127.08078 | 35298 ft | 473 kts | 134° |
| 2026-04-17 21:28 | 51.30843 | -127.01477 | 35306 ft | 473 kts | 134° |
| 2026-04-17 21:28 | 51.26468 | -126.93597 | 35303 ft | 474 kts | 134° |
| 2026-04-17 21:29 | 51.22087 | -126.85729 | 35315 ft | 474 kts | 134° |
| 2026-04-17 21:29 | 51.17726 | -126.77921 | 35312 ft | 475 kts | 134° |
| 2026-04-17 21:30 | 51.13328 | -126.70070 | 35310 ft | 475 kts | 134° |
| 2026-04-17 21:30 | 51.08926 | -126.62237 | 35303 ft | 474 kts | 134° |
| 2026-04-17 21:31 | 51.04524 | -126.54428 | 35304 ft | 474 kts | 134° |
| 2026-04-17 21:31 | 51.00122 | -126.46643 | 35318 ft | 474 kts | 134° |
| 2026-04-17 21:32 | 50.95701 | -126.38850 | 35315 ft | 474 kts | 134° |
| 2026-04-17 21:32 | 50.91281 | -126.31081 | 35313 ft | 474 kts | 134° |
| 2026-04-17 21:33 | 50.86854 | -126.23326 | 35312 ft | 474 kts | 134° |
| 2026-04-17 21:33 | 50.82426 | -126.15590 | 35321 ft | 474 kts | 134° |
| 2026-04-17 21:34 | 50.77997 | -126.07875 | 35322 ft | 474 kts | 134° |
| 2026-04-17 21:35 | 50.71357 | -125.96357 | 35318 ft | 475 kts | 134° |
| 2026-04-17 21:35 | 50.66904 | -125.88660 | 35323 ft | 475 kts | 135° |
| 2026-04-17 21:36 | 50.62442 | -125.80973 | 35329 ft | 476 kts | 135° |
| 2026-04-17 21:36 | 50.60190 | -125.77102 | 34822 ft | 483 kts | 135° |
| 2026-04-17 21:36 | 50.57922 | -125.73210 | 34249 ft | 482 kts | 135° |
| 2026-04-17 21:36 | 50.55651 | -125.69317 | 33497 ft | 483 kts | 134° |
| 2026-04-17 21:37 | 50.53386 | -125.65422 | 32769 ft | 483 kts | 134° |
| 2026-04-17 21:37 | 50.51115 | -125.61541 | 32062 ft | 483 kts | 134° |
| 2026-04-17 21:37 | 50.48837 | -125.57661 | 31347 ft | 483 kts | 134° |
| 2026-04-17 21:37 | 50.46563 | -125.53793 | 30809 ft | 480 kts | 134° |
| 2026-04-17 21:38 | 50.44308 | -125.49958 | 30273 ft | 475 kts | 134° |
| 2026-04-17 21:38 | 50.42073 | -125.46163 | 29692 ft | 471 kts | 134° |
| 2026-04-17 21:38 | 50.39861 | -125.42412 | 29172 ft | 465 kts | 134° |
| 2026-04-17 21:38 | 50.37679 | -125.38719 | 28647 ft | 459 kts | 134° |
| 2026-04-17 21:39 | 50.35519 | -125.35067 | 28143 ft | 454 kts | 134° |
| 2026-04-17 21:39 | 50.33410 | -125.31506 | 27632 ft | 450 kts | 134° |
| 2026-04-17 21:39 | 50.31291 | -125.27932 | 27135 ft | 445 kts | 134° |
| 2026-04-17 21:39 | 50.29194 | -125.24401 | 26635 ft | 441 kts | 134° |
| 2026-04-17 21:40 | 50.27116 | -125.20909 | 26145 ft | 437 kts | 134° |
| 2026-04-17 21:40 | 50.25053 | -125.17445 | 25664 ft | 433 kts | 134° |
| 2026-04-17 21:40 | 50.23008 | -125.14016 | 25179 ft | 430 kts | 134° |
| 2026-04-17 21:40 | 50.20975 | -125.10611 | 24701 ft | 427 kts | 134° |
| 2026-04-17 21:41 | 50.18957 | -125.07238 | 24221 ft | 423 kts | 134° |
| 2026-04-17 21:41 | 50.16954 | -125.03893 | 23729 ft | 420 kts | 134° |
| 2026-04-17 21:41 | 50.14964 | -125.00573 | 23173 ft | 417 kts | 134° |
| 2026-04-17 21:41 | 50.12991 | -124.97286 | 22683 ft | 413 kts | 134° |
| 2026-04-17 21:42 | 50.11039 | -124.94038 | 22207 ft | 408 kts | 134° |
| 2026-04-17 21:42 | 50.09106 | -124.90828 | 21743 ft | 404 kts | 134° |
| 2026-04-17 21:42 | 50.07192 | -124.87650 | 21266 ft | 400 kts | 134° |
| 2026-04-17 21:42 | 50.05299 | -124.84513 | 20798 ft | 396 kts | 134° |
| 2026-04-17 21:43 | 50.03422 | -124.81405 | 20356 ft | 392 kts | 134° |
| 2026-04-17 21:43 | 50.01560 | -124.78327 | 19905 ft | 389 kts | 134° |
| 2026-04-17 21:43 | 49.99712 | -124.75276 | 19459 ft | 386 kts | 134° |
| 2026-04-17 21:43 | 49.97880 | -124.72254 | 19017 ft | 383 kts | 134° |
| 2026-04-17 21:44 | 49.96060 | -124.69256 | 18585 ft | 380 kts | 134° |
| 2026-04-17 21:44 | 49.94258 | -124.66291 | 18087 ft | 376 kts | 134° |
| 2026-04-17 21:44 | 49.92466 | -124.63345 | 17638 ft | 372 kts | 135° |
| 2026-04-17 21:44 | 49.90701 | -124.60447 | 17217 ft | 368 kts | 135° |
| 2026-04-17 21:45 | 49.88948 | -124.57572 | 16772 ft | 365 kts | 134° |
| 2026-04-17 21:45 | 49.87233 | -124.54765 | 16323 ft | 362 kts | 134° |
| 2026-04-17 21:45 | 49.85485 | -124.51908 | 15657 ft | 366 kts | 134° |
| 2026-04-17 21:45 | 49.83738 | -124.49052 | 15176 ft | 364 kts | 135° |
| 2026-04-17 21:46 | 49.82002 | -124.46218 | 14736 ft | 361 kts | 134° |
| 2026-04-17 21:46 | 49.80278 | -124.43407 | 14297 ft | 358 kts | 134° |
| 2026-04-17 21:46 | 49.78565 | -124.40616 | 13841 ft | 355 kts | 134° |
| 2026-04-17 21:46 | 49.76872 | -124.37861 | 13395 ft | 352 kts | 134° |
| 2026-04-17 21:47 | 49.75198 | -124.35140 | 12986 ft | 347 kts | 135° |
| 2026-04-17 21:47 | 49.73539 | -124.32446 | 12578 ft | 343 kts | 134° |
| 2026-04-17 21:47 | 49.71896 | -124.29782 | 12167 ft | 339 kts | 134° |
| 2026-04-17 21:47 | 49.70295 | -124.27189 | 11759 ft | 336 kts | 134° |
| 2026-04-17 21:48 | 49.68669 | -124.24556 | 11345 ft | 333 kts | 134° |
| 2026-04-17 21:48 | 49.67092 | -124.22007 | 10966 ft | 330 kts | 134° |
| 2026-04-17 21:48 | 49.65521 | -124.19469 | 10726 ft | 322 kts | 134° |
| 2026-04-17 21:48 | 49.64000 | -124.17014 | 10598 ft | 311 kts | 134° |
| 2026-04-17 21:49 | 49.62529 | -124.14642 | 10462 ft | 302 kts | 134° |
| 2026-04-17 21:49 | 49.61096 | -124.12334 | 10329 ft | 292 kts | 134° |
| 2026-04-17 21:49 | 49.59710 | -124.10102 | 10216 ft | 283 kts | 135° |
| 2026-04-17 21:49 | 49.58367 | -124.07941 | 10090 ft | 274 kts | 134° |
| 2026-04-17 21:50 | 49.57066 | -124.05851 | 9985 ft | 265 kts | 135° |
| 2026-04-17 21:50 | 49.55794 | -124.03810 | 9737 ft | 262 kts | 135° |
| 2026-04-17 21:50 | 49.54539 | -124.01798 | 9481 ft | 259 kts | 134° |
| 2026-04-17 21:50 | 49.53293 | -123.99803 | 9235 ft | 257 kts | 134° |
| 2026-04-17 21:51 | 49.52076 | -123.97855 | 8986 ft | 255 kts | 134° |
| 2026-04-17 21:51 | 49.50855 | -123.95900 | 8732 ft | 252 kts | 134° |
| 2026-04-17 21:51 | 49.49644 | -123.93964 | 8491 ft | 250 kts | 134° |
| 2026-04-17 21:51 | 49.48443 | -123.92046 | 8249 ft | 248 kts | 134° |
| 2026-04-17 21:52 | 49.47248 | -123.90137 | 8007 ft | 248 kts | 134° |
| 2026-04-17 21:52 | 49.46038 | -123.88208 | 7776 ft | 253 kts | 134° |
| 2026-04-17 21:52 | 49.44801 | -123.86235 | 7531 ft | 259 kts | 134° |
| 2026-04-17 21:52 | 49.43542 | -123.84231 | 7263 ft | 260 kts | 134° |
| 2026-04-17 21:53 | 49.42288 | -123.82235 | 7002 ft | 259 kts | 134° |
| 2026-04-17 21:53 | 49.41040 | -123.80249 | 6741 ft | 257 kts | 134° |
| 2026-04-17 21:53 | 49.39801 | -123.78280 | 6475 ft | 256 kts | 133° |
| 2026-04-17 21:53 | 49.38566 | -123.76320 | 6210 ft | 255 kts | 133° |
| 2026-04-17 21:54 | 49.37331 | -123.74358 | 5946 ft | 255 kts | 133° |
| 2026-04-17 21:54 | 49.36164 | -123.72371 | 5685 ft | 254 kts | 124° |
| 2026-04-17 21:54 | 49.35359 | -123.69984 | 5423 ft | 251 kts | 107° |
| 2026-04-17 21:54 | 49.35028 | -123.67373 | 5176 ft | 249 kts | 95° |
| 2026-04-17 21:55 | 49.34885 | -123.64737 | 4915 ft | 248 kts | 94° |
| 2026-04-17 21:55 | 49.34762 | -123.62085 | 4659 ft | 253 kts | 94° |
| 2026-04-17 21:55 | 49.34611 | -123.59258 | 4436 ft | 281 kts | 96° |
| 2026-04-17 21:55 | 49.34363 | -123.56226 | 4180 ft | 288 kts | 97° |
| 2026-04-17 21:56 | 49.34097 | -123.53168 | 3923 ft | 290 kts | 97° |
| 2026-04-17 21:56 | 49.33830 | -123.50149 | 3643 ft | 281 kts | 97° |
| 2026-04-17 21:56 | 49.33570 | -123.47236 | 3363 ft | 269 kts | 97° |
| 2026-04-17 21:56 | 49.33323 | -123.44472 | 3224 ft | 253 kts | 97° |
| 2026-04-17 21:57 | 49.33090 | -123.41852 | 3195 ft | 243 kts | 98° |
| 2026-04-17 21:57 | 49.32877 | -123.39339 | 3194 ft | 233 kts | 97° |
| 2026-04-17 21:57 | 49.32676 | -123.36926 | 3210 ft | 225 kts | 97° |
| 2026-04-17 21:57 | 49.32478 | -123.34552 | 3204 ft | 225 kts | 97° |
| 2026-04-17 21:58 | 49.32279 | -123.32162 | 3207 ft | 227 kts | 97° |
| 2026-04-17 21:58 | 49.32083 | -123.29789 | 3199 ft | 228 kts | 97° |
| 2026-04-17 21:58 | 49.31884 | -123.27380 | 3198 ft | 228 kts | 97° |
| 2026-04-17 21:58 | 49.31683 | -123.24964 | 3197 ft | 229 kts | 97° |
| 2026-04-17 21:59 | 49.31480 | -123.22543 | 3182 ft | 228 kts | 98° |
| 2026-04-17 21:59 | 49.31279 | -123.20143 | 3180 ft | 225 kts | 97° |
| 2026-04-17 21:59 | 49.31084 | -123.17780 | 3181 ft | 222 kts | 97° |
| 2026-04-17 21:59 | 49.30893 | -123.15448 | 3180 ft | 217 kts | 97° |
| 2026-04-17 22:00 | 49.30709 | -123.13227 | 3173 ft | 204 kts | 97° |
| 2026-04-17 22:00 | 49.30529 | -123.11131 | 3183 ft | 196 kts | 97° |
| 2026-04-17 22:00 | 49.30350 | -123.09070 | 3192 ft | 195 kts | 97° |
| 2026-04-17 22:00 | 49.30171 | -123.07010 | 3202 ft | 196 kts | 97° |
| 2026-04-17 22:01 | 49.29991 | -123.04941 | 3208 ft | 197 kts | 97° |
| 2026-04-17 22:01 | 49.29791 | -123.02864 | 3200 ft | 198 kts | 103° |
| 2026-04-17 22:01 | 49.29250 | -123.00942 | 3193 ft | 197 kts | 125° |
| 2026-04-17 22:01 | 49.28369 | -122.99329 | 3200 ft | 197 kts | 133° |
| 2026-04-17 22:02 | 49.27395 | -122.97853 | 3192 ft | 197 kts | 136° |
| 2026-04-17 22:02 | 49.26399 | -122.96398 | 3192 ft | 197 kts | 136° |
| 2026-04-17 22:02 | 49.25408 | -122.94957 | 3014 ft | 201 kts | 136° |
| 2026-04-17 22:02 | 49.24393 | -122.93493 | 2803 ft | 198 kts | 139° |
| 2026-04-17 22:03 | 49.23242 | -122.92387 | 2571 ft | 195 kts | 160° |
| 2026-04-17 22:03 | 49.21953 | -122.91814 | 2374 ft | 192 kts | 165° |
| 2026-04-17 22:03 | 49.20675 | -122.91292 | 2187 ft | 187 kts | 169° |
| 2026-04-17 22:03 | 49.19418 | -122.91268 | 1981 ft | 175 kts | 193° |
| 2026-04-17 22:04 | 49.18370 | -122.91997 | 1914 ft | 161 kts | 219° |
| 2026-04-17 22:04 | 49.17691 | -122.93309 | 1932 ft | 159 kts | 245° |
| 2026-04-17 22:04 | 49.17472 | -122.94959 | 1899 ft | 160 kts | 272° |
| 2026-04-17 22:04 | 49.17710 | -122.96626 | 1821 ft | 162 kts | 288° |
| 2026-04-17 22:05 | 49.18127 | -122.98219 | 1683 ft | 160 kts | 288° |
| 2026-04-17 22:05 | 49.18416 | -122.99860 | 1548 ft | 160 kts | 280° |
| 2026-04-17 22:05 | 49.18593 | -123.01487 | 1402 ft | 152 kts | 278° |
| 2026-04-17 22:05 | 49.18759 | -123.03058 | 1253 ft | 148 kts | 278° |
| 2026-04-17 22:06 | 49.18906 | -123.04622 | 1115 ft | 149 kts | 277° |
| 2026-04-17 22:06 | 49.19049 | -123.06194 | 982 ft | 149 kts | 276° |
| 2026-04-17 22:06 | 49.19187 | -123.07758 | 855 ft | 148 kts | 276° |
| 2026-04-17 22:06 | 49.19327 | -123.09301 | 784 ft | 145 kts | 277° |
| 2026-04-17 22:07 | 49.19482 | -123.10823 | 682 ft | 144 kts | 277° |
| 2026-04-17 22:07 | 49.19628 | -123.12315 | 576 ft | 144 kts | 278° |
| 2026-04-17 22:07 | 49.19796 | -123.13838 | 381 ft | 146 kts | 279° |
| 2026-04-17 22:07 | 49.19970 | -123.15391 | 144 ft | 150 kts | 279° |
| 2026-04-17 22:08 | 49.20149 | -123.16889 | 40 ft | 130 kts | 279° |
| 2026-04-17 22:08 | 49.20288 | -123.18108 | 17 ft | 102 kts | 280° |
| 2026-04-17 22:08 | 49.20365 | -123.18753 | 21 ft | 29 kts | 280° |
| 2026-04-17 22:08 | 49.20394 | -123.19141 | 16 ft | 43 kts | 262° |
| 2026-04-17 22:09 | 49.20310 | -123.19541 | 17 ft | 25 kts | 247° |
| 2026-04-17 22:09 | 49.20245 | -123.19532 | 17 ft | 13 kts | 103° |
| 2026-04-17 22:09 | 49.20221 | -123.19326 | 17 ft | 28 kts | 99° |
| 2026-04-17 22:09 | 49.20177 | -123.18957 | 17 ft | 42 kts | 101° |
| 2026-04-17 22:10 | 49.20121 | -123.18486 | 17 ft | 44 kts | 100° |
| 2026-04-17 22:10 | 49.20071 | -123.18033 | 18 ft | 38 kts | 99° |
| 2026-04-17 22:10 | 49.20013 | -123.17845 | 18 ft | 15 kts | 174° |
| 2026-04-17 22:10 | 49.19940 | -123.17771 | 16 ft | 16 kts | 100° |
| 2026-04-17 22:11 | 49.19922 | -123.17590 | 16 ft | 18 kts | 98° |
| 2026-04-17 22:11 | 49.19918 | -123.17518 | 16 ft | 0 kts | 90° |